Time;durP1;ratioP1;P1;durP2;ratioP2;P2;SDS_P1;SDS_P2;PMS_P1;PMS_P2;Temp;Humidity;BMP_temperature;BMP_pressure;BME280_temperature;BME280_humidity;BME280_pressure;Samples;Min_cycle;Max_cycle;Signal;HPM_P1;HPM_P2
2024/01/25 00:00:39;;;;;;;19.53;5.73;;;;;;;;;;5108308;28;20296;-80
2024/01/25 00:03:08;;;;;;;16.87;5.33;;;;;;;;;;5092127;28;20195;-80
2024/01/25 00:05:36;;;;;;;19.80;5.43;;;;;;;;;;5092717;28;20203;-80
2024/01/25 00:08:05;;;;;;;9.87;3.43;;;;;;;;;;5108628;28;20199;-80
2024/01/25 00:10:34;;;;;;;19.70;4.87;;;;;;;;;;5092535;28;20209;-80
2024/01/25 00:13:02;;;;;;;17.87;5.50;;;;;;;;;;5090885;28;20219;-80
2024/01/25 00:15:32;;;;;;;30.13;7.77;;;;;;;;;;5092544;28;20234;-80
2024/01/25 00:18:01;;;;;;;8.83;3.07;;;;;;;;;;5092538;28;20253;-80
2024/01/25 00:20:29;;;;;;;17.20;3.70;;;;;;;;;;5091271;28;20203;-80
2024/01/25 00:22:58;;;;;;;9.43;2.53;;;;;;;;;;5092134;28;20229;-80
2024/01/25 00:25:26;;;;;;;14.37;5.13;;;;;;;;;;5092217;28;20203;-80
2024/01/25 00:27:55;;;;;;;16.83;4.97;;;;;;;;;;5092402;28;20214;-80
2024/01/25 00:30:23;;;;;;;8.43;2.50;;;;;;;;;;5090864;28;20194;-80
2024/01/25 00:32:53;;;;;;;19.17;5.53;;;;;;;;;;5090876;28;20217;-80
2024/01/25 00:35:22;;;;;;;15.23;4.47;;;;;;;;;;5090634;28;20218;-80
2024/01/25 00:37:51;;;;;;;13.87;3.13;;;;;;;;;;5091071;28;20199;-80
2024/01/25 00:40:20;;;;;;;16.50;3.83;;;;;;;;;;5107812;28;20193;-80
2024/01/25 00:42:53;;;;;;;6.97;2.87;;;;;;;;;;5092307;28;20190;-80
2024/01/25 00:45:22;;;;;;;14.90;4.07;;;;;;;;;;5090664;28;20280;-80
2024/01/25 00:47:51;;;;;;;5.03;2.70;;;;;;;;;;5107710;28;20210;-80
2024/01/25 00:50:23;;;;;;;11.70;3.60;;;;;;;;;;5092217;28;20218;-80
2024/01/25 00:52:53;;;;;;;28.63;6.57;;;;;;;;;;5091974;28;20213;-80
2024/01/25 00:55:22;;;;;;;9.17;4.70;;;;;;;;;;5107117;28;20203;-80
2024/01/25 00:57:51;;;;;;;8.33;4.23;;;;;;;;;;5090983;28;20216;-80
2024/01/25 01:00:21;;;;;;;22.80;6.30;;;;;;;;;;5107600;28;20194;-80
2024/01/25 01:02:49;;;;;;;23.03;5.30;;;;;;;;;;5091447;28;20231;-80
2024/01/25 01:05:18;;;;;;;20.77;5.37;;;;;;;;;;5107366;28;20210;-80
2024/01/25 01:07:49;;;;;;;27.20;7.10;;;;;;;;;;5091634;28;20199;-80
2024/01/25 01:10:18;;;;;;;16.17;4.73;;;;;;;;;;5090995;28;20202;-80
2024/01/25 01:12:47;;;;;;;30.07;6.37;;;;;;;;;;5090642;28;20282;-80
2024/01/25 01:15:17;;;;;;;10.17;2.43;;;;;;;;;;5091269;28;20211;-80
2024/01/25 01:17:46;;;;;;;18.67;4.83;;;;;;;;;;5091276;28;20258;-80
2024/01/25 01:20:15;;;;;;;17.87;3.37;;;;;;;;;;5092004;28;20200;-80
2024/01/25 01:22:43;;;;;;;5.03;1.87;;;;;;;;;;5107730;28;20191;-80
2024/01/25 01:25:13;;;;;;;12.10;3.63;;;;;;;;;;5090218;28;20226;-80
2024/01/25 01:27:42;;;;;;;10.30;6.23;;;;;;;;;;5107295;28;20280;-80
2024/01/25 01:30:11;;;;;;;13.83;3.43;;;;;;;;;;5090381;28;20280;-80
2024/01/25 01:32:39;;;;;;;5.30;3.40;;;;;;;;;;5090282;28;20217;-80
2024/01/25 01:35:08;;;;;;;9.90;2.80;;;;;;;;;;5091148;28;20255;-80
2024/01/25 01:37:37;;;;;;;5.90;2.23;;;;;;;;;;5089717;28;20233;-80
2024/01/25 01:40:06;;;;;;;6.03;4.10;;;;;;;;;;5091427;28;20300;-80
2024/01/25 01:42:36;;;;;;;2.93;2.73;;;;;;;;;;5093986;28;20201;-80
2024/01/25 01:45:05;;;;;;;8.67;2.67;;;;;;;;;;5111315;28;20198;-80
2024/01/25 01:47:33;;;;;;;10.43;2.93;;;;;;;;;;5094849;28;20202;-80
2024/01/25 01:50:03;;;;;;;13.07;3.50;;;;;;;;;;5095699;28;20221;-80
2024/01/25 01:52:32;;;;;;;10.17;3.37;;;;;;;;;;5095221;28;20198;-80
2024/01/25 01:55:00;;;;;;;17.17;6.87;;;;;;;;;;5095075;28;20198;-80
2024/01/25 01:57:29;;;;;;;21.17;4.30;;;;;;;;;;5110265;28;20261;-80
2024/01/25 02:00:00;;;;;;;3.70;2.07;;;;;;;;;;5094837;28;20194;-80
2024/01/25 02:02:29;;;;;;;12.43;3.37;;;;;;;;;;5094110;28;20366;-80
2024/01/25 02:04:57;;;;;;;12.30;3.47;;;;;;;;;;5110602;28;20199;-80
2024/01/25 02:07:26;;;;;;;2.83;2.23;;;;;;;;;;5094257;28;20229;-80
2024/01/25 02:09:54;;;;;;;11.43;4.57;;;;;;;;;;5093649;28;20233;-80
2024/01/25 02:12:23;;;;;;;9.43;2.20;;;;;;;;;;5095125;28;20216;-80
2024/01/25 02:14:51;;;;;;;8.03;4.23;;;;;;;;;;5093690;28;20312;-80
2024/01/25 02:17:21;;;;;;;17.73;5.37;;;;;;;;;;5093412;28;20198;-80
2024/01/25 02:19:50;;;;;;;8.97;3.80;;;;;;;;;;5094534;28;20195;-80
2024/01/25 02:22:20;;;;;;;13.87;3.83;;;;;;;;;;5093862;28;20245;-80
2024/01/25 02:24:49;;;;;;;28.97;5.07;;;;;;;;;;5094913;28;20289;-80
2024/01/25 02:27:18;;;;;;;2.93;2.70;;;;;;;;;;5094381;28;20281;-80
2024/01/25 02:29:46;;;;;;;11.10;4.30;;;;;;;;;;5093219;28;20200;-80
2024/01/25 02:32:15;;;;;;;27.30;6.43;;;;;;;;;;5093762;28;20198;-80
2024/01/25 02:34:43;;;;;;;14.93;5.17;;;;;;;;;;5094574;28;20253;-80
2024/01/25 02:37:12;;;;;;;27.27;5.97;;;;;;;;;;5109870;28;20245;-80
2024/01/25 02:39:42;;;;;;;21.90;5.20;;;;;;;;;;5094192;28;20204;-80
2024/01/25 02:42:12;;;;;;;19.43;5.67;;;;;;;;;;5094743;28;20250;-80
2024/01/25 02:44:40;;;;;;;0.70;0.70;;;;;;;;;;5094572;28;20199;-80
2024/01/25 02:47:08;;;;;;;10.77;4.00;;;;;;;;;;5094182;28;20273;-80
2024/01/25 02:49:37;;;;;;;8.53;2.73;;;;;;;;;;5092547;28;20302;-80
2024/01/25 02:52:06;;;;;;;24.53;5.37;;;;;;;;;;5093689;28;20198;-80
2024/01/25 02:54:36;;;;;;;12.53;2.60;;;;;;;;;;5109704;28;20221;-80
2024/01/25 02:57:06;;;;;;;11.73;5.73;;;;;;;;;;5094298;28;20206;-80
2024/01/25 02:59:35;;;;;;;7.30;4.67;;;;;;;;;;5092622;28;20202;-80
2024/01/25 03:02:03;;;;;;;11.43;3.67;;;;;;;;;;5093396;28;20204;-80
2024/01/25 03:04:32;;;;;;;8.70;3.73;;;;;;;;;;5093103;28;20284;-80
2024/01/25 03:07:01;;;;;;;12.33;2.53;;;;;;;;;;5093657;28;20231;-80
2024/01/25 03:09:29;;;;;;;4.57;2.10;;;;;;;;;;5092568;28;20193;-80
2024/01/25 03:11:58;;;;;;;6.33;3.03;;;;;;;;;;5092004;28;20299;-80
2024/01/25 03:14:28;;;;;;;6.97;3.23;;;;;;;;;;5092715;28;20249;-80
2024/01/25 03:16:57;;;;;;;8.90;4.77;;;;;;;;;;5110161;28;20232;-80
2024/01/25 03:19:26;;;;;;;7.17;2.83;;;;;;;;;;5093667;28;20210;-80
2024/01/25 03:21:55;;;;;;;2.07;1.60;;;;;;;;;;5109164;28;20197;-80
2024/01/25 03:24:24;;;;;;;13.77;4.83;;;;;;;;;;5093659;28;20197;-80
2024/01/25 03:26:52;;;;;;;15.93;4.13;;;;;;;;;;5092828;28;20212;-80
2024/01/25 03:29:21;;;;;;;18.20;5.23;;;;;;;;;;5092107;28;20194;-80
2024/01/25 03:31:51;;;;;;;7.53;2.53;;;;;;;;;;5093026;28;20224;-80
2024/01/25 03:34:19;;;;;;;12.33;3.03;;;;;;;;;;5109074;28;20247;-80
2024/01/25 03:36:50;;;;;;;15.00;3.57;;;;;;;;;;5092005;28;20230;-80
2024/01/25 03:39:18;;;;;;;7.70;3.40;;;;;;;;;;5093269;28;20197;-80
2024/01/25 03:41:47;;;;;;;14.33;3.07;;;;;;;;;;5092930;28;20202;-80
2024/01/25 03:44:15;;;;;;;0.80;0.80;;;;;;;;;;5092670;28;20201;-80
2024/01/25 03:46:43;;;;;;;13.43;3.07;;;;;;;;;;5093114;28;20206;-80
2024/01/25 03:49:17;;;;;;;8.50;1.53;;;;;;;;;;5091896;28;20250;-80
2024/01/25 03:51:46;;;;;;;13.53;3.87;;;;;;;;;;5092815;28;20205;-80
2024/01/25 03:54:14;;;;;;;2.73;1.93;;;;;;;;;;5091095;28;20228;-80
2024/01/25 03:56:43;;;;;;;1.57;1.53;;;;;;;;;;5091957;28;20198;-80
2024/01/25 03:59:13;;;;;;;11.27;3.80;;;;;;;;;;5108788;28;20288;-80
2024/01/25 04:01:46;;;;;;;7.87;2.80;;;;;;;;;;5108706;28;20201;-80
2024/01/25 04:04:17;;;;;;;19.97;6.13;;;;;;;;;;5091667;28;20198;-80
2024/01/25 04:06:46;;;;;;;30.43;8.73;;;;;;;;;;5092936;28;20196;-80
2024/01/25 04:09:16;;;;;;;1.60;1.50;;;;;;;;;;5091240;28;20312;-80
2024/01/25 04:11:44;;;;;;;15.40;1.83;;;;;;;;;;5092719;28;20205;-80
2024/01/25 04:14:12;;;;;;;1.63;1.63;;;;;;;;;;5107855;28;20219;-80
2024/01/25 04:16:41;;;;;;;18.23;5.90;;;;;;;;;;5091289;28;20226;-80
2024/01/25 04:19:12;;;;;;;6.03;1.60;;;;;;;;;;5092246;28;20243;-80
2024/01/25 04:21:42;;;;;;;3.90;3.50;;;;;;;;;;5091725;28;20207;-80
2024/01/25 04:24:10;;;;;;;9.17;4.10;;;;;;;;;;5108067;28;20198;-80
2024/01/25 04:26:39;;;;;;;25.60;5.93;;;;;;;;;;5107681;28;20190;-80
2024/01/25 04:29:07;;;;;;;30.27;8.17;;;;;;;;;;5091011;28;20202;-80
2024/01/25 04:31:36;;;;;;;8.30;2.70;;;;;;;;;;5091439;28;20221;-80
2024/01/25 04:34:04;;;;;;;14.70;5.03;;;;;;;;;;5091923;28;20205;-80
2024/01/25 04:36:33;;;;;;;22.63;5.87;;;;;;;;;;5090517;28;20282;-80
2024/01/25 04:39:03;;;;;;;19.50;6.43;;;;;;;;;;5092269;28;20190;-80
2024/01/25 04:41:32;;;;;;;4.43;2.07;;;;;;;;;;5092202;28;20201;-80
2024/01/25 04:44:00;;;;;;;21.73;5.87;;;;;;;;;;5107854;28;20194;-80
2024/01/25 04:46:29;;;;;;;13.13;4.27;;;;;;;;;;5092089;28;20194;-80
2024/01/25 04:48:57;;;;;;;26.43;2.37;;;;;;;;;;5091548;28;20220;-80
2024/01/25 04:51:26;;;;;;;12.20;8.37;;;;;;;;;;5090929;28;20202;-80
2024/01/25 04:53:55;;;;;;;16.97;2.20;;;;;;;;;;5107615;28;20212;-80
2024/01/25 04:56:25;;;;;;;4.87;2.23;;;;;;;;;;5091347;28;20217;-80
2024/01/25 04:58:53;;;;;;;1.00;1.00;;;;;;;;;;5091541;28;20297;-80
2024/01/25 05:01:21;;;;;;;0.70;0.70;;;;;;;;;;5091769;28;20198;-80
2024/01/25 05:03:50;;;;;;;0.70;0.70;;;;;;;;;;5107909;28;20266;-80
2024/01/25 05:06:19;;;;;;;9.00;2.70;;;;;;;;;;5090149;28;20198;-80
2024/01/25 05:08:48;;;;;;;1.30;1.30;;;;;;;;;;5106913;28;20199;-80
2024/01/25 05:11:16;;;;;;;2.60;1.67;;;;;;;;;;5091089;28;20198;-80
2024/01/25 05:13:46;;;;;;;0.90;0.90;;;;;;;;;;5091919;28;20287;-80
2024/01/25 05:16:15;;;;;;;7.33;4.33;;;;;;;;;;5089913;28;20274;-80
2024/01/25 05:18:43;;;;;;;2.10;2.10;;;;;;;;;;5090762;28;20198;-80
2024/01/25 05:21:12;;;;;;;0.97;0.97;;;;;;;;;;5092009;28;20198;-80
2024/01/25 05:23:40;;;;;;;4.37;1.33;;;;;;;;;;5090244;28;20207;-80
2024/01/25 05:26:09;;;;;;;1.00;1.00;;;;;;;;;;5090575;28;20201;-80
2024/01/25 05:28:37;;;;;;;1.20;1.13;;;;;;;;;;5106969;28;20264;-80
2024/01/25 05:31:12;;;;;;;9.53;4.07;;;;;;;;;;5091503;28;20201;-81
2024/01/25 05:33:40;;;;;;;5.00;1.77;;;;;;;;;;5090678;28;20301;-80
2024/01/25 05:36:09;;;;;;;1.40;1.40;;;;;;;;;;5107221;28;20241;-80
2024/01/25 05:38:38;;;;;;;0.70;0.70;;;;;;;;;;5089977;28;20198;-80
2024/01/25 05:41:06;;;;;;;7.90;2.07;;;;;;;;;;5089848;28;20201;-80
2024/01/25 05:43:35;;;;;;;1.07;0.97;;;;;;;;;;5090574;28;20212;-80
2024/01/25 05:46:03;;;;;;;16.93;3.50;;;;;;;;;;5090187;28;20265;-80
2024/01/25 05:48:34;;;;;;;6.60;2.50;;;;;;;;;;5106635;28;20204;-80
2024/01/25 05:51:01;;;;;;;8.30;3.07;;;;;;;;;;5091210;28;20202;-80
2024/01/25 05:53:30;;;;;;;5.70;2.20;;;;;;;;;;5090546;28;20205;-80
2024/01/25 05:55:58;;;;;;;1.57;1.47;;;;;;;;;;5090377;28;20240;-80
2024/01/25 05:58:27;;;;;;;4.53;2.30;;;;;;;;;;5089998;28;20200;-80
2024/01/25 06:00:55;;;;;;;14.57;2.77;;;;;;;;;;5089445;28;20288;-80
2024/01/25 06:03:24;;;;;;;1.00;1.00;;;;;;;;;;5090175;28;20197;-80
2024/01/25 06:05:54;;;;;;;5.57;2.23;;;;;;;;;;5091750;28;20206;-80
2024/01/25 06:08:23;;;;;;;11.13;3.13;;;;;;;;;;5089866;28;20246;-80
2024/01/25 06:10:51;;;;;;;2.87;2.50;;;;;;;;;;5106664;28;20282;-80
2024/01/25 06:13:20;;;;;;;9.43;2.87;;;;;;;;;;5091447;28;20279;-80
2024/01/25 06:15:49;;;;;;;7.60;3.77;;;;;;;;;;5091232;28;20301;-80
2024/01/25 06:18:17;;;;;;;0.80;0.80;;;;;;;;;;5091379;28;20209;-80
2024/01/25 06:20:47;;;;;;;3.13;2.00;;;;;;;;;;5089932;28;20205;-80
2024/01/25 06:23:16;;;;;;;5.27;3.90;;;;;;;;;;5090419;28;20210;-80
2024/01/25 06:25:45;;;;;;;7.07;4.70;;;;;;;;;;5091080;28;20276;-80
2024/01/25 06:28:13;;;;;;;3.33;2.27;;;;;;;;;;5091367;28;20213;-80
2024/01/25 06:30:42;;;;;;;13.43;8.77;;;;;;;;;;5093285;28;20246;-80
2024/01/25 06:33:10;;;;;;;1.17;1.17;;;;;;;;;;5110860;28;20509;-80
2024/01/25 06:35:39;;;;;;;29.60;5.47;;;;;;;;;;5094357;28;20220;-80
2024/01/25 06:38:07;;;;;;;3.50;3.20;;;;;;;;;;5093472;28;20190;-80
2024/01/25 06:40:38;;;;;;;4.93;3.27;;;;;;;;;;5110539;28;20203;-80
2024/01/25 06:43:06;;;;;;;6.77;2.23;;;;;;;;;;5094635;28;20233;-80
2024/01/25 06:45:35;;;;;;;11.77;4.07;;;;;;;;;;5093870;28;20186;-81
2024/01/25 06:48:03;;;;;;;9.17;3.23;;;;;;;;;;5093419;28;20189;-80
2024/01/25 06:50:32;;;;;;;10.50;4.00;;;;;;;;;;5094064;28;20220;-81
2024/01/25 06:53:01;;;;;;;9.87;4.20;;;;;;;;;;5092451;28;20299;-81
2024/01/25 06:55:29;;;;;;;2.93;1.73;;;;;;;;;;5093359;28;20213;-80
2024/01/25 06:57:59;;;;;;;1.57;1.47;;;;;;;;;;5094783;28;20195;-81
2024/01/25 07:00:27;;;;;;;1.33;1.33;;;;;;;;;;5094636;28;20259;-80
2024/01/25 07:02:56;;;;;;;1.43;1.43;;;;;;;;;;5094078;28;20200;-80
2024/01/25 07:05:25;;;;;;;0.67;0.67;;;;;;;;;;5093979;28;20292;-80
2024/01/25 07:07:53;;;;;;;2.93;1.97;;;;;;;;;;5110020;28;20248;-81
2024/01/25 07:10:22;;;;;;;11.83;3.87;;;;;;;;;;5093788;28;20201;-80
2024/01/25 07:12:51;;;;;;;0.80;0.80;;;;;;;;;;5093613;28;20247;-80
2024/01/25 07:15:22;;;;;;;0.70;0.70;;;;;;;;;;5093478;28;20201;-80
2024/01/25 07:17:50;;;;;;;0.67;0.67;;;;;;;;;;5094973;28;20217;-81
2024/01/25 07:20:19;;;;;;;1.70;1.70;;;;;;;;;;5093783;28;20204;-81
2024/01/25 07:22:51;;;;;;;0.67;0.67;;;;;;;;;;5093661;28;20273;-81
2024/01/25 07:25:20;;;;;;;1.00;1.00;;;;;;;;;;5092125;28;20205;-80
2024/01/25 07:27:49;;;;;;;0.70;0.70;;;;;;;;;;5093917;28;20198;-81
2024/01/25 07:30:18;;;;;;;0.70;0.70;;;;;;;;;;5093690;28;20238;-82
2024/01/25 07:32:49;;;;;;;0.70;0.70;;;;;;;;;;5092638;28;20190;-82
2024/01/25 07:35:18;;;;;;;3.13;1.40;;;;;;;;;;5088942;28;20240;-81
2024/01/25 07:37:49;;;;;;;0.87;0.87;;;;;;;;;;5033402;28;20256;-83
2024/01/25 07:40:21;;;;;;;2.47;1.70;;;;;;;;;;5031644;28;20203;-81
2024/01/25 07:42:49;;;;;;;0.70;0.70;;;;;;;;;;5031977;28;20203;-81
2024/01/25 07:45:18;;;;;;;0.70;0.70;;;;;;;;;;5032043;28;20196;-81
2024/01/25 07:47:46;;;;;;;10.20;3.30;;;;;;;;;;5032179;28;20299;-82
2024/01/25 07:50:18;;;;;;;3.37;1.67;;;;;;;;;;5032134;28;20223;-82
2024/01/25 07:52:49;;;;;;;1.10;1.10;;;;;;;;;;5032743;28;20207;-82
2024/01/25 07:55:18;;;;;;;0.60;0.60;;;;;;;;;;5031941;28;20206;-82
2024/01/25 07:57:46;;;;;;;0.60;0.60;;;;;;;;;;5033329;28;20246;-81
2024/01/25 08:00:15;;;;;;;0.80;0.80;;;;;;;;;;5033696;28;20207;-81
2024/01/25 08:02:44;;;;;;;0.67;0.67;;;;;;;;;;5033086;28;20219;-81
2024/01/25 08:05:13;;;;;;;11.13;2.97;;;;;;;;;;5032571;28;20230;-81
2024/01/25 08:07:43;;;;;;;0.70;0.70;;;;;;;;;;5032794;28;20208;-81
2024/01/25 08:10:12;;;;;;;2.00;1.90;;;;;;;;;;5033679;28;20192;-81
2024/01/25 08:12:43;;;;;;;1.93;1.87;;;;;;;;;;5032807;28;20269;-81
2024/01/25 08:15:19;;;;;;;4.30;2.23;;;;;;;;;;5031575;28;20266;-81
2024/01/25 08:17:48;;;;;;;0.63;0.63;;;;;;;;;;5031934;28;20226;-81
2024/01/25 08:20:16;;;;;;;5.20;5.00;;;;;;;;;;5033079;28;20192;-81
2024/01/25 08:22:47;;;;;;;0.70;0.70;;;;;;;;;;5031514;28;20195;-81
2024/01/25 08:25:16;;;;;;;1.13;1.13;;;;;;;;;;5032797;28;20236;-81
2024/01/25 08:27:44;;;;;;;22.73;5.47;;;;;;;;;;5030833;28;20199;-81
2024/01/25 08:30:13;;;;;;;19.53;5.83;;;;;;;;;;5032343;28;20226;-81
2024/01/25 08:32:42;;;;;;;5.10;1.30;;;;;;;;;;5030956;28;20203;-81
2024/01/25 08:35:11;;;;;;;1.47;1.47;;;;;;;;;;5033238;28;20208;-81
2024/01/25 08:37:39;;;;;;;1.03;1.00;;;;;;;;;;5069116;28;20249;-81
2024/01/25 08:40:11;;;;;;;11.40;4.60;;;;;;;;;;5070793;28;20193;-81
2024/01/25 08:42:40;;;;;;;4.77;2.47;;;;;;;;;;5071120;28;20198;-82
2024/01/25 08:45:09;;;;;;;15.90;3.73;;;;;;;;;;5071135;28;20199;-81
2024/01/25 08:47:41;;;;;;;29.60;7.03;;;;;;;;;;5071086;28;20264;-81
2024/01/25 08:50:12;;;;;;;20.40;5.10;;;;;;;;;;5071309;28;20277;-82
2024/01/25 08:52:41;;;;;;;19.70;5.87;;;;;;;;;;5072377;28;20257;-81
2024/01/25 08:55:11;;;;;;;4.33;2.13;;;;;;;;;;5071395;28;20198;-81
2024/01/25 08:57:40;;;;;;;7.27;2.87;;;;;;;;;;5070172;28;20210;-82
2024/01/25 09:00:11;;;;;;;9.33;4.73;;;;;;;;;;5070711;28;20214;-81
2024/01/25 09:02:39;;;;;;;23.53;5.80;;;;;;;;;;5071690;28;20197;-81
2024/01/25 09:05:08;;;;;;;14.03;5.67;;;;;;;;;;5070959;28;20197;-81
2024/01/25 09:07:37;;;;;;;22.67;5.57;;;;;;;;;;5070178;28;20256;-81
2024/01/25 09:10:06;;;;;;;1.30;1.17;;;;;;;;;;5070532;28;20230;-81
2024/01/25 09:12:37;;;;;;;1.60;1.43;;;;;;;;;;5072591;28;20282;-81
2024/01/25 09:15:06;;;;;;;1.73;1.67;;;;;;;;;;5071690;28;20208;-81
2024/01/25 09:17:34;;;;;;;1.13;1.13;;;;;;;;;;5069985;28;20221;-81
2024/01/25 09:20:04;;;;;;;16.60;6.40;;;;;;;;;;5074009;28;20267;-82
2024/01/25 09:22:33;;;;;;;33.50;8.33;;;;;;;;;;5091407;28;20247;-82
2024/01/25 09:25:04;;;;;;;23.60;9.13;;;;;;;;;;5091468;28;20202;-83
2024/01/25 09:27:38;;;;;;;29.40;10.13;;;;;;;;;;5090926;28;20195;-83
2024/01/25 09:30:08;;;;;;;30.87;10.20;;;;;;;;;;5086249;28;20194;-81
2024/01/25 09:32:37;;;;;;;11.43;5.80;;;;;;;;;;5071450;28;20213;-82
2024/01/25 09:35:06;;;;;;;6.67;2.47;;;;;;;;;;5078868;28;20195;-82
2024/01/25 09:37:35;;;;;;;9.40;3.43;;;;;;;;;;5093454;28;20236;-82
2024/01/25 09:40:03;;;;;;;18.97;5.77;;;;;;;;;;5073128;28;20195;-84
2024/01/25 09:42:33;;;;;;;22.07;7.83;;;;;;;;;;5089424;28;20229;-82
2024/01/25 09:45:05;;;;;;;13.67;4.57;;;;;;;;;;5091785;28;20201;-82
2024/01/25 09:47:34;;;;;;;12.77;3.67;;;;;;;;;;5089385;28;20204;-81
2024/01/25 09:50:04;;;;;;;26.73;6.90;;;;;;;;;;5089943;28;20211;-81
2024/01/25 09:52:33;;;;;;;22.17;7.60;;;;;;;;;;5090289;28;20286;-81
2024/01/25 09:55:03;;;;;;;17.47;6.83;;;;;;;;;;5090705;28;20250;-82
2024/01/25 09:57:32;;;;;;;25.47;7.63;;;;;;;;;;5089932;28;20202;-82
2024/01/25 10:00:01;;;;;;;13.80;4.93;;;;;;;;;;5091129;28;20209;-82
2024/01/25 10:02:31;;;;;;;0.60;0.60;;;;;;;;;;5089923;28;20220;-82
2024/01/25 10:05:00;;;;;;;0.70;0.70;;;;;;;;;;5094337;28;20199;-82
2024/01/25 10:07:39;;;;;;;1.87;0.93;;;;;;;;;;5094093;28;20185;-82
2024/01/25 10:10:09;;;;;;;1.60;1.30;;;;;;;;;;5093155;28;20204;-82
2024/01/25 10:12:37;;;;;;;1.43;1.43;;;;;;;;;;5093271;28;20213;-82
2024/01/25 10:15:06;;;;;;;3.63;2.93;;;;;;;;;;5094549;28;20207;-82
2024/01/25 10:17:36;;;;;;;1.77;1.77;;;;;;;;;;5093515;28;20211;-82
2024/01/25 10:20:10;;;;;;;13.83;5.50;;;;;;;;;;5093813;28;20193;-83
2024/01/25 10:22:39;;;;;;;22.83;5.53;;;;;;;;;;5105418;28;20218;-83
2024/01/25 10:25:15;;;;;;;5.83;2.87;;;;;;;;;;5091719;28;20283;-82
2024/01/25 10:27:45;;;;;;;12.43;5.87;;;;;;;;;;5095120;28;20253;-82
2024/01/25 10:30:14;;;;;;;23.00;5.77;;;;;;;;;;5093930;28;20210;-83
2024/01/25 10:32:44;;;;;;;24.67;7.73;;;;;;;;;;5085253;28;20226;-82
2024/01/25 10:35:13;;;;;;;16.47;4.67;;;;;;;;;;5088502;28;20204;-83
2024/01/25 10:37:42;;;;;;;13.67;5.30;;;;;;;;;;5092593;28;20235;-82
2024/01/25 10:40:11;;;;;;;23.73;5.70;;;;;;;;;;5093494;28;20449;-82
2024/01/25 10:42:41;;;;;;;25.23;8.47;;;;;;;;;;5090392;28;20236;-83
2024/01/25 10:45:10;;;;;;;27.07;6.90;;;;;;;;;;5092762;28;20189;-82
2024/01/25 10:47:42;;;;;;;23.07;6.73;;;;;;;;;;5092413;28;20248;-82
2024/01/25 10:50:13;;;;;;;20.30;5.97;;;;;;;;;;5092567;28;20299;-82
2024/01/25 10:52:43;;;;;;;21.83;6.43;;;;;;;;;;5088691;28;20217;-84
2024/01/25 10:55:13;;;;;;;25.87;9.20;;;;;;;;;;5090404;28;20187;-82
2024/01/25 10:57:44;;;;;;;13.50;4.20;;;;;;;;;;5089845;28;20214;-82
2024/01/25 11:00:14;;;;;;;13.87;3.20;;;;;;;;;;5092182;28;20186;-83
2024/01/25 11:02:43;;;;;;;19.33;6.33;;;;;;;;;;5090955;28;20218;-83
2024/01/25 11:05:13;;;;;;;28.60;7.63;;;;;;;;;;5092187;28;20199;-83
2024/01/25 11:07:45;;;;;;;29.93;7.33;;;;;;;;;;5093186;28;20194;-83
2024/01/25 11:10:18;;;;;;;6.03;3.20;;;;;;;;;;5091037;28;20199;-83
2024/01/25 11:12:53;;;;;;;9.53;3.50;;;;;;;;;;5093388;28;20236;-83
2024/01/25 11:15:23;;;;;;;18.63;8.07;;;;;;;;;;5091386;28;20202;-83
2024/01/25 11:17:58;;;;;;;10.00;4.67;;;;;;;;;;5092777;28;20528;-84
2024/01/25 11:20:31;;;;;;;32.63;7.07;;;;;;;;;;5095742;28;20201;-83
2024/01/25 11:23:00;;;;;;;28.23;8.83;;;;;;;;;;5092591;28;20190;-83
2024/01/25 11:25:29;;;;;;;27.83;9.07;;;;;;;;;;5089781;28;20196;-83
2024/01/25 11:27:59;;;;;;;32.57;9.47;;;;;;;;;;5089866;28;20249;-83
2024/01/25 11:30:27;;;;;;;20.10;7.67;;;;;;;;;;5094540;28;20207;-83
2024/01/25 11:32:56;;;;;;;25.23;7.23;;;;;;;;;;5092725;28;20200;-83
2024/01/25 11:35:25;;;;;;;28.20;8.77;;;;;;;;;;5092023;28;20472;-83
2024/01/25 11:37:56;;;;;;;22.00;9.57;;;;;;;;;;5092998;28;20199;-83
2024/01/25 11:40:25;;;;;;;13.23;5.30;;;;;;;;;;5093378;28;20234;-83
2024/01/25 11:42:54;;;;;;;25.23;6.93;;;;;;;;;;5092638;28;20198;-82
2024/01/25 11:45:22;;;;;;;33.23;6.97;;;;;;;;;;5092726;28;20202;-82
2024/01/25 11:47:51;;;;;;;8.53;2.87;;;;;;;;;;5091608;28;20207;-83
2024/01/25 11:50:21;;;;;;;32.33;8.27;;;;;;;;;;5092987;28;20225;-83
2024/01/25 11:52:52;;;;;;;20.83;7.33;;;;;;;;;;5091991;28;20190;-82
2024/01/25 11:55:22;;;;;;;25.17;7.43;;;;;;;;;;5091971;28;20203;-82
2024/01/25 11:57:51;;;;;;;25.50;8.53;;;;;;;;;;5091165;28;20198;-82
2024/01/25 12:00:20;;;;;;;22.57;8.87;;;;;;;;;;5091453;28;20193;-82
2024/01/25 12:02:49;;;;;;;16.47;6.47;;;;;;;;;;5091665;28;20233;-82
2024/01/25 12:05:17;;;;;;;18.00;6.17;;;;;;;;;;5092314;28;20427;-82
2024/01/25 12:07:46;;;;;;;21.20;7.50;;;;;;;;;;5091466;28;20194;-82
2024/01/25 12:10:17;;;;;;;24.10;7.00;;;;;;;;;;5092322;28;20191;-82
2024/01/25 12:12:49;;;;;;;16.63;4.50;;;;;;;;;;5091710;28;20195;-80
2024/01/25 12:15:19;;;;;;;17.07;6.60;;;;;;;;;;5092139;28;20209;-80
2024/01/25 12:17:47;;;;;;;22.03;7.47;;;;;;;;;;5091348;28;20269;-80
2024/01/25 12:20:18;;;;;;;13.53;5.27;;;;;;;;;;5091199;28;20210;-80
2024/01/25 12:22:49;;;;;;;26.27;8.70;;;;;;;;;;5092113;28;20234;-80
2024/01/25 12:25:18;;;;;;;19.30;9.70;;;;;;;;;;5092379;28;20294;-80
2024/01/25 12:27:50;;;;;;;30.67;10.87;;;;;;;;;;5091525;28;20226;-80
2024/01/25 12:30:19;;;;;;;25.57;9.57;;;;;;;;;;5092313;28;20251;-80
2024/01/25 12:32:49;;;;;;;19.57;7.93;;;;;;;;;;5091771;28;20203;-80
2024/01/25 12:35:18;;;;;;;33.47;10.30;;;;;;;;;;5092902;28;20224;-80
2024/01/25 12:37:47;;;;;;;28.17;8.37;;;;;;;;;;5090947;28;20217;-80
2024/01/25 12:40:15;;;;;;;24.73;9.90;;;;;;;;;;5090700;28;20218;-80
2024/01/25 12:42:44;;;;;;;31.87;8.93;;;;;;;;;;5091161;28;20256;-79
2024/01/25 12:45:15;;;;;;;24.27;9.30;;;;;;;;;;5092461;28;20201;-79
2024/01/25 12:47:44;;;;;;;19.00;7.90;;;;;;;;;;5091157;28;20249;-80
2024/01/25 12:50:13;;;;;;;26.20;9.67;;;;;;;;;;5090389;28;20224;-80
2024/01/25 12:52:41;;;;;;;32.70;10.17;;;;;;;;;;5091095;28;20190;-80
2024/01/25 12:55:10;;;;;;;21.80;6.97;;;;;;;;;;5092364;28;20209;-80
2024/01/25 12:57:39;;;;;;;26.47;9.43;;;;;;;;;;5091367;28;20209;-80
2024/01/25 13:00:08;;;;;;;15.17;5.97;;;;;;;;;;5091606;28;20222;-80
2024/01/25 13:02:39;;;;;;;23.57;8.17;;;;;;;;;;5090846;28;20202;-80
2024/01/25 13:05:08;;;;;;;19.27;5.20;;;;;;;;;;5092013;28;20187;-80
2024/01/25 13:07:37;;;;;;;23.90;9.00;;;;;;;;;;5091367;28;20203;-81
2024/01/25 13:10:05;;;;;;;25.30;6.77;;;;;;;;;;5091870;28;20193;-80
2024/01/25 13:12:34;;;;;;;27.10;9.33;;;;;;;;;;5091600;28;20282;-81
2024/01/25 13:15:02;;;;;;;24.13;8.67;;;;;;;;;;5092661;28;20279;-80
2024/01/25 13:17:31;;;;;;;20.63;8.60;;;;;;;;;;5090788;28;20204;-80
2024/01/25 13:20:01;;;;;;;25.03;7.60;;;;;;;;;;5091719;28;20241;-80
2024/01/25 13:22:29;;;;;;;29.33;9.40;;;;;;;;;;5090417;28;20202;-80
2024/01/25 13:24:58;;;;;;;21.50;7.60;;;;;;;;;;5091608;28;20256;-80
2024/01/25 13:27:27;;;;;;;21.67;7.10;;;;;;;;;;5090839;28;20221;-80
2024/01/25 13:29:56;;;;;;;18.87;6.43;;;;;;;;;;5090591;28;20198;-80
2024/01/25 13:32:24;;;;;;;18.57;6.93;;;;;;;;;;5090184;28;20231;-80
2024/01/25 13:34:53;;;;;;;19.23;6.47;;;;;;;;;;5090253;28;20200;-80
2024/01/25 13:37:23;;;;;;;15.40;6.10;;;;;;;;;;5091735;28;20238;-80
2024/01/25 13:39:52;;;;;;;23.53;11.03;;;;;;;;;;5095471;28;20246;-79
2024/01/25 13:42:20;;;;;;;15.53;6.87;;;;;;;;;;5094514;28;20195;-79
2024/01/25 13:44:49;;;;;;;19.97;7.70;;;;;;;;;;5094095;28;20428;-80
2024/01/25 13:47:17;;;;;;;18.10;6.00;;;;;;;;;;5095961;28;20514;-80
2024/01/25 13:49:46;;;;;;;24.30;9.30;;;;;;;;;;5095854;28;20224;-79
2024/01/25 13:52:19;;;;;;;26.23;7.33;;;;;;;;;;5095863;28;20229;-80
2024/01/25 13:54:49;;;;;;;19.07;6.20;;;;;;;;;;5095075;28;20242;-79
2024/01/25 13:57:20;;;;;;;22.10;7.47;;;;;;;;;;5095802;28;20234;-80
2024/01/25 13:59:49;;;;;;;11.47;4.20;;;;;;;;;;5095311;28;20223;-80
2024/01/25 14:02:17;;;;;;;21.40;7.37;;;;;;;;;;5094244;28;20289;-80
2024/01/25 14:04:46;;;;;;;24.53;5.33;;;;;;;;;;5093976;28;20203;-79
2024/01/25 14:07:17;;;;;;;19.03;7.33;;;;;;;;;;5095257;28;20275;-80
2024/01/25 14:09:46;;;;;;;20.10;7.60;;;;;;;;;;5094466;28;20191;-80
2024/01/25 14:12:20;;;;;;;23.60;6.93;;;;;;;;;;5094540;28;20205;-80
2024/01/25 14:14:49;;;;;;;15.80;5.23;;;;;;;;;;5093349;28;20197;-79
2024/01/25 14:17:18;;;;;;;25.97;10.00;;;;;;;;;;5110668;28;20207;-80
2024/01/25 14:19:47;;;;;;;24.73;9.67;;;;;;;;;;5094616;28;20226;-80
2024/01/25 14:22:16;;;;;;;23.27;9.40;;;;;;;;;;5094419;28;20209;-80
2024/01/25 14:24:58;;;;;;;23.30;6.93;;;;;;;;;;5094511;28;20326;-80
2024/01/25 14:27:29;;;;;;;19.87;8.63;;;;;;;;;;5093511;28;20284;-80
2024/01/25 14:29:57;;;;;;;30.53;9.40;;;;;;;;;;5095005;28;20192;-80
2024/01/25 14:32:26;;;;;;;37.07;11.70;;;;;;;;;;5095236;28;20253;-80
2024/01/25 14:34:54;;;;;;;22.87;9.60;;;;;;;;;;5094348;28;20194;-80
2024/01/25 14:37:23;;;;;;;29.07;12.43;;;;;;;;;;5092836;28;20245;-80
2024/01/25 14:39:52;;;;;;;21.87;5.27;;;;;;;;;;5094807;28;20210;-80
2024/01/25 14:42:41;;;;;;;27.30;11.60;;;;;;;;;;5093777;28;20207;-80
2024/01/25 14:45:10;;;;;;;15.13;8.10;;;;;;;;;;5093986;28;20200;-80
2024/01/25 14:47:38;;;;;;;28.33;11.37;;;;;;;;;;5093153;28;20194;-80